Time;durP1;ratioP1;P1;durP2;ratioP2;P2;SDS_P1;SDS_P2;PMS_P1;PMS_P2;Temp;Humidity;BMP_temperature;BMP_pressure;BME280_temperature;BME280_humidity;BME280_pressure;Samples;Min_cycle;Max_cycle;Signal;HPM_P1;HPM_P2
2021/01/01 00:00:37;;;;;;;10.65;6.22;;;;;;;0.78;93.17;96011.59;4938836;28;20063;-79
2021/01/01 00:03:03;;;;;;;10.30;6.25;;;;;;;0.78;93.57;96006.47;4916178;29;20399;-79
2021/01/01 00:05:30;;;;;;;8.30;5.18;;;;;;;0.77;93.58;96014.38;4921869;29;20076;-79
2021/01/01 00:07:55;;;;;;;9.60;5.78;;;;;;;0.76;93.51;96003.34;4906926;29;20376;-78
2021/01/01 00:10:21;;;;;;;10.27;6.28;;;;;;;0.79;92.89;96008.06;4923347;29;20484;-78
2021/01/01 00:12:47;;;;;;;10.95;6.35;;;;;;;0.82;93.17;96001.72;4919993;29;20388;-78
2021/01/01 00:15:14;;;;;;;12.35;6.68;;;;;;;0.89;93.05;96012.69;4944273;29;20043;-78
2021/01/01 00:17:40;;;;;;;10.98;6.50;;;;;;;0.85;92.58;96017.44;4923334;29;20396;-78
2021/01/01 00:20:09;;;;;;;10.10;6.05;;;;;;;0.80;92.94;96007.03;4946562;29;20499;-78
2021/01/01 00:22:35;;;;;;;12.00;7.50;;;;;;;0.82;93.43;96006.84;4927093;29;20039;-78
2021/01/01 00:25:01;;;;;;;11.75;6.43;;;;;;;0.81;93.18;96011.19;4937437;29;20046;-78
2021/01/01 00:27:28;;;;;;;12.38;7.18;;;;;;;0.79;92.89;96013.19;4922804;29;20059;-78
2021/01/01 00:29:55;;;;;;;11.45;7.07;;;;;;;0.78;92.92;96011.59;4923726;29;20058;-78
2021/01/01 00:32:21;;;;;;;11.65;5.93;;;;;;;0.82;93.39;96017.84;4922746;29;20035;-78
2021/01/01 00:34:46;;;;;;;10.70;6.32;;;;;;;0.81;93.06;96018.09;4932659;29;20057;-77
2021/01/01 00:37:12;;;;;;;13.65;6.68;;;;;;;0.79;93.44;96018.31;4932210;29;20032;-78
2021/01/01 00:39:38;;;;;;;11.50;7.32;;;;;;;0.84;92.94;96021.00;4883238;29;20074;-78
2021/01/01 00:42:04;;;;;;;11.40;7.28;;;;;;;0.88;93.42;96022.16;4918957;29;20036;-78
2021/01/01 00:44:31;;;;;;;12.25;7.25;;;;;;;0.89;92.76;96021.16;4911283;29;20083;-78
2021/01/01 00:46:56;;;;;;;10.88;6.28;;;;;;;0.90;93.13;96029.63;4928396;29;20091;-78
2021/01/01 00:49:22;;;;;;;12.90;6.15;;;;;;;0.83;93.39;96021.22;4915110;29;20384;-78
2021/01/01 00:51:48;;;;;;;13.48;6.50;;;;;;;0.86;93.41;96028.50;4914303;29;20096;-78
2021/01/01 00:54:14;;;;;;;10.80;6.03;;;;;;;0.86;93.31;96029.28;4933385;29;20379;-79
2021/01/01 00:56:40;;;;;;;13.23;7.07;;;;;;;0.85;93.41;96029.47;4918637;29;20130;-78
2021/01/01 00:59:06;;;;;;;13.10;7.32;;;;;;;0.88;93.03;96026.50;4937726;29;20067;-78
2021/01/01 01:01:32;;;;;;;9.60;6.13;;;;;;;0.86;93.18;96028.50;4923181;29;20039;-78
2021/01/01 01:03:58;;;;;;;11.13;6.03;;;;;;;0.86;93.29;96036.97;4945804;28;20074;-78
2021/01/01 01:06:25;;;;;;;12.88;6.72;;;;;;;0.90;93.02;96045.00;4962858;28;20118;-79
2021/01/01 01:08:51;;;;;;;10.77;6.07;;;;;;;0.91;92.92;96037.09;4943570;28;20045;-78
2021/01/01 01:11:25;;;;;;;10.13;5.57;;;;;;;0.90;92.92;96037.31;4921524;29;20598;-79
2021/01/01 01:13:52;;;;;;;9.10;5.25;;;;;;;0.95;92.60;96036.69;4950864;29;20545;-78
2021/01/01 01:16:29;;;;;;;8.30;5.03;;;;;;;0.96;92.51;96046.75;4966745;28;20065;-79
2021/01/01 01:18:56;;;;;;;8.07;4.72;;;;;;;1.01;92.35;96046.09;4938294;28;20037;-79
2021/01/01 01:21:24;;;;;;;9.65;5.38;;;;;;;1.01;92.27;96053.78;4929060;29;20038;-79
2021/01/01 01:23:51;;;;;;;9.75;4.97;;;;;;;0.95;92.14;96049.50;4950138;29;20074;-79
2021/01/01 01:26:17;;;;;;;9.10;5.50;;;;;;;0.96;92.25;96058.75;4933892;29;20426;-78
2021/01/01 01:28:43;;;;;;;8.05;4.15;;;;;;;0.91;92.21;96047.38;4925222;28;20066;-79
2021/01/01 01:31:09;;;;;;;10.02;5.15;;;;;;;0.96;92.56;96058.75;4941639;28;20034;-78
2021/01/01 01:33:35;;;;;;;9.27;5.18;;;;;;;0.96;92.46;96067.25;4944347;28;20115;-79
2021/01/01 01:36:02;;;;;;;9.82;4.88;;;;;;;0.99;92.17;96063.47;4962805;28;20039;-79
2021/01/01 01:38:28;;;;;;;7.97;4.80;;;;;;;1.00;92.16;96075.28;4941855;28;20081;-78
2021/01/01 01:40:54;;;;;;;6.80;4.20;;;;;;;0.98;91.39;96067.00;4959323;28;20470;-79
2021/01/01 01:43:22;;;;;;;7.72;4.85;;;;;;;1.01;90.68;96071.72;4947358;29;20073;-78
2021/01/01 01:45:47;;;;;;;9.25;4.55;;;;;;;0.98;90.81;96064.44;4940777;29;20032;-78
2021/01/01 01:48:19;;;;;;;7.47;3.92;;;;;;;0.85;91.12;96078.94;4949951;29;20122;-78
2021/01/01 01:50:45;;;;;;;6.47;4.30;;;;;;;0.81;91.35;96070.13;4940725;28;20111;-79
2021/01/01 01:53:11;;;;;;;7.70;3.70;;;;;;;0.74;91.75;96066.81;4939702;28;20582;-79
2021/01/01 01:55:36;;;;;;;7.72;3.72;;;;;;;0.70;91.63;96081.03;4946758;29;20031;-79
2021/01/01 01:58:03;;;;;;;5.72;3.50;;;;;;;0.64;91.98;96080.09;4944882;28;20035;-79
2021/01/01 02:03:00;;;;;;;7.72;4.40;;;;;;;0.66;91.98;96095.25;4933926;29;20498;-79
2021/01/01 02:05:28;;;;;;;6.93;4.00;;;;;;;0.60;91.88;96099.44;4922272;28;20042;-79
2021/01/01 02:07:54;;;;;;;5.22;3.33;;;;;;;0.62;91.77;96088.97;4954844;28;20117;-79
2021/01/01 02:10:20;;;;;;;6.90;3.22;;;;;;;0.66;91.95;96106.28;4948355;29;20126;-78
2021/01/01 02:12:47;;;;;;;7.28;3.78;;;;;;;0.56;91.93;96091.34;4968095;28;20027;-79
2021/01/01 02:15:13;;;;;;;7.75;3.97;;;;;;;0.58;92.59;96098.06;4951039;29;20051;-79
2021/01/01 02:17:39;;;;;;;6.50;3.60;;;;;;;0.55;92.29;96100.06;4967557;28;20064;-79
2021/01/01 02:20:07;;;;;;;5.43;3.40;;;;;;;0.46;92.12;96100.50;4967327;28;20434;-79
2021/01/01 02:22:40;;;;;;;6.85;3.65;;;;;;;0.49;92.03;96090.63;4961680;28;20042;-79
2021/01/01 02:25:10;;;;;;;6.85;3.92;;;;;;;0.52;92.51;96105.59;4944391;28;20118;-79
2021/01/01 02:27:39;;;;;;;7.30;3.78;;;;;;;0.45;92.14;96096.38;4943973;28;20411;-79
2021/01/01 02:30:06;;;;;;;5.50;3.20;;;;;;;0.50;92.07;96106.78;4964292;28;20089;-78
2021/01/01 02:32:32;;;;;;;5.78;3.60;;;;;;;0.42;92.45;96097.56;4953142;28;20129;-79
2021/01/01 02:34:58;;;;;;;6.63;3.35;;;;;;;0.46;92.40;96110.75;4945021;28;20118;-79
2021/01/01 02:37:24;;;;;;;7.07;3.83;;;;;;;0.48;92.51;96109.56;4968793;28;20039;-79
2021/01/01 02:39:50;;;;;;;7.22;3.72;;;;;;;0.44;92.63;96112.72;4941758;28;20061;-79
2021/01/01 02:42:16;;;;;;;6.55;3.42;;;;;;;0.41;92.28;96095.97;4940817;28;20110;-78
2021/01/01 02:44:42;;;;;;;7.55;4.03;;;;;;;0.48;92.12;96114.69;4953104;29;20110;-79
2021/01/01 02:47:08;;;;;;;7.68;3.50;;;;;;;0.45;92.25;96104.06;4970276;28;20046;-79
2021/01/01 02:49:34;;;;;;;7.38;4.00;;;;;;;0.56;92.63;96118.75;4967957;28;20030;-79
2021/01/01 02:52:01;;;;;;;7.97;3.97;;;;;;;0.47;92.73;96113.09;4971633;28;20043;-79
2021/01/01 02:54:27;;;;;;;7.32;3.30;;;;;;;0.54;92.18;96113.84;4956652;28;20035;-79
2021/01/01 02:56:53;;;;;;;7.13;4.18;;;;;;;0.51;91.89;96113.47;4953639;28;20092;-80
2021/01/01 02:59:20;;;;;;;6.05;3.38;;;;;;;0.56;92.27;96126.44;4970472;28;20481;-79
2021/01/01 03:01:46;;;;;;;6.93;4.40;;;;;;;0.50;92.36;96117.81;4941148;28;20059;-80
2021/01/01 03:04:12;;;;;;;7.07;3.55;;;;;;;0.61;91.99;96123.25;4933374;28;20572;-79
2021/01/01 03:06:37;;;;;;;7.55;3.40;;;;;;;0.57;92.11;96117.78;4930389;28;20031;-79
2021/01/01 03:09:04;;;;;;;7.13;3.67;;;;;;;0.46;92.31;96111.50;4964498;28;20538;-79
2021/01/01 03:11:30;;;;;;;7.50;3.33;;;;;;;0.47;92.18;96127.69;4930833;28;20023;-79
2021/01/01 03:13:56;;;;;;;6.18;3.33;;;;;;;0.45;92.29;96122.75;4944063;28;20109;-79
2021/01/01 03:16:22;;;;;;;6.75;3.80;;;;;;;0.43;92.33;96116.28;4942307;28;20487;-78
2021/01/01 03:18:48;;;;;;;9.43;4.38;;;;;;;0.43;92.74;96114.50;4946421;28;20416;-79
2021/01/01 03:21:16;;;;;;;7.90;3.45;;;;;;;0.52;92.40;96118.38;4953791;28;20310;-78
2021/01/01 03:23:42;;;;;;;8.50;4.03;;;;;;;0.50;92.25;96110.13;4912045;28;20046;-79
2021/01/01 03:26:07;;;;;;;7.47;4.28;;;;;;;0.54;92.03;96118.19;4953797;28;20038;-78
2021/01/01 03:28:33;;;;;;;8.00;4.10;;;;;;;0.60;92.33;96125.06;4929423;28;20453;-79
2021/01/01 03:31:00;;;;;;;8.75;4.63;;;;;;;0.48;92.22;96113.88;4943262;28;20038;-79
2021/01/01 03:33:26;;;;;;;8.18;4.28;;;;;;;0.59;91.95;96125.25;4959155;28;20054;-78
2021/01/01 03:35:52;;;;;;;7.40;4.53;;;;;;;0.53;91.62;96117.41;4963614;28;20512;-79
2021/01/01 03:38:19;;;;;;;8.85;4.30;;;;;;;0.59;91.89;96128.59;4961012;28;20467;-79
2021/01/01 03:40:46;;;;;;;6.30;4.15;;;;;;;0.59;92.16;96126.03;4964260;28;20063;-79
2021/01/01 03:43:12;;;;;;;11.27;4.70;;;;;;;0.58;92.19;96124.44;4942112;29;20028;-79
2021/01/01 03:45:37;;;;;;;7.80;4.32;;;;;;;0.62;92.12;96128.19;4942425;28;20110;-79
2021/01/01 03:48:03;;;;;;;7.97;4.53;;;;;;;0.64;91.83;96113.38;4928024;28;20089;-78
2021/01/01 03:50:29;;;;;;;8.98;4.75;;;;;;;0.64;91.53;96125.41;4942058;28;20039;-79
2021/01/01 03:52:55;;;;;;;8.45;4.93;;;;;;;0.49;91.74;96123.13;4963725;28;20031;-79
2021/01/01 03:55:21;;;;;;;11.23;6.13;;;;;;;0.46;91.77;96123.53;4943220;28;20054;-79
2021/01/01 03:57:47;;;;;;;10.25;5.60;;;;;;;0.48;92.15;96127.47;4962494;28;20042;-78
2021/01/01 04:00:14;;;;;;;9.27;4.93;;;;;;;0.49;92.49;96126.47;4928529;28;20027;-79
2021/01/01 04:02:39;;;;;;;9.77;5.28;;;;;;;0.55;92.53;96125.66;4926859;29;20039;-78
2021/01/01 04:05:06;;;;;;;12.88;5.45;;;;;;;0.57;92.13;96128.03;4935983;29;20036;-79
2021/01/01 04:07:32;;;;;;;9.05;4.72;;;;;;;0.58;91.71;96128.78;4968594;28;20085;-78
2021/01/01 04:09:58;;;;;;;8.23;4.70;;;;;;;0.61;91.82;96129.16;4952943;28;20490;-79
2021/01/01 04:12:24;;;;;;;10.15;5.10;;;;;;;0.60;91.84;96132.75;4955447;28;20039;-78
2021/01/01 04:14:49;;;;;;;7.00;4.15;;;;;;;0.58;91.66;96128.78;4955635;28;20035;-79
2021/01/01 04:17:16;;;;;;;8.98;4.72;;;;;;;0.52;91.87;96123.50;4937504;28;20065;-79
2021/01/01 04:19:42;;;;;;;10.35;5.20;;;;;;;0.45;92.39;96122.75;4971163;28;20042;-79
2021/01/01 04:22:07;;;;;;;10.15;5.03;;;;;;;0.50;91.92;96129.84;4943185;28;20039;-79
2021/01/01 04:24:33;;;;;;;11.07;5.35;;;;;;;0.58;91.94;96134.69;4955559;28;20063;-79
2021/01/01 04:27:00;;;;;;;12.40;5.82;;;;;;;0.52;91.58;96133.75;4967473;28;20068;-79
2021/01/01 04:29:25;;;;;;;10.90;5.75;;;;;;;0.45;91.76;96125.31;4943624;28;20086;-79
2021/01/01 04:31:54;;;;;;;10.57;5.75;;;;;;;0.52;91.96;96125.28;4955232;28;20019;-79
2021/01/01 04:34:19;;;;;;;11.82;6.68;;;;;;;0.46;91.84;96132.00;4966718;28;20035;-79
2021/01/01 04:36:45;;;;;;;12.23;6.57;;;;;;;0.44;92.13;96128.09;4971168;28;20045;-80
2021/01/01 04:39:11;;;;;;;11.20;6.00;;;;;;;0.46;91.85;96129.44;4967111;28;20035;-79
2021/01/01 04:41:40;;;;;;;11.02;6.35;;;;;;;0.44;91.68;96126.31;4968315;28;20027;-79
2021/01/01 04:44:06;;;;;;;10.25;5.60;;;;;;;0.50;91.99;96134.97;4953987;28;20477;-78
2021/01/01 04:46:33;;;;;;;12.07;6.13;;;;;;;0.51;92.20;96136.50;4949440;28;20049;-78
2021/01/01 04:49:00;;;;;;;14.52;6.55;;;;;;;0.44;92.09;96139.13;4951112;28;20362;-79
2021/01/01 04:51:26;;;;;;;11.68;6.22;;;;;;;0.45;92.29;96150.94;4916257;28;20023;-79
2021/01/01 04:53:56;;;;;;;11.80;6.13;;;;;;;0.50;92.61;96148.53;4955130;28;20039;-79
2021/01/01 04:56:22;;;;;;;10.63;5.55;;;;;;;0.49;92.38;96152.09;4919396;28;20026;-79
2021/01/01 04:58:48;;;;;;;10.57;6.28;;;;;;;0.47;92.41;96148.94;4967954;28;20035;-78
2021/01/01 05:01:14;;;;;;;13.32;6.78;;;;;;;0.35;92.66;96148.03;4938710;29;20078;-79
2021/01/01 05:03:40;;;;;;;13.77;7.00;;;;;;;0.40;92.76;96157.66;4970578;28;20043;-79
2021/01/01 05:06:05;;;;;;;12.52;6.40;;;;;;;0.41;92.86;96154.88;4923906;28;20118;-79
2021/01/01 05:08:32;;;;;;;15.82;7.40;;;;;;;0.35;92.92;96150.59;4972131;28;20426;-79
2021/01/01 05:11:05;;;;;;;13.80;6.85;;;;;;;0.36;92.88;96157.25;4943844;28;20429;-79
2021/01/01 05:13:31;;;;;;;16.27;7.50;;;;;;;0.36;92.61;96158.06;4945385;28;20027;-78
2021/01/01 05:15:57;;;;;;;15.25;7.60;;;;;;;0.42;93.02;96155.69;4953925;28;20655;-79
2021/01/01 05:18:25;;;;;;;16.60;7.85;;;;;;;0.42;92.47;96155.69;4949302;28;20073;-79
2021/01/01 05:20:57;;;;;;;16.63;7.60;;;;;;;0.40;92.37;96161.00;4954070;28;20034;-79
2021/01/01 05:23:25;;;;;;;16.55;9.02;;;;;;;0.45;92.82;96155.28;4938765;28;20035;-79
2021/01/01 05:26:09;;;;;;;21.00;9.38;;;;;;;0.31;92.67;96157.91;4935293;29;20034;-79
2021/01/01 05:28:50;;;;;;;18.00;8.60;;;;;;;0.35;93.00;96163.41;4965703;28;20065;-79
2021/01/01 05:31:25;;;;;;;16.67;8.35;;;;;;;0.39;92.68;96161.97;4961514;28;20494;-79
2021/01/01 05:34:22;;;;;;;18.85;9.02;;;;;;;0.33;92.74;96167.94;4948180;28;20058;-80
2021/01/01 05:36:48;;;;;;;23.48;10.00;;;;;;;0.45;92.78;96168.88;4961757;28;20074;-78
2021/01/01 05:39:14;;;;;;;20.15;9.30;;;;;;;0.45;92.86;96173.97;4937226;28;20054;-79
2021/01/01 05:41:42;;;;;;;19.70;9.65;;;;;;;0.46;92.94;96172.19;4965809;28;20522;-79
2021/01/01 05:44:09;;;;;;;20.10;9.02;;;;;;;0.50;92.91;96169.03;4927682;28;20027;-78
2021/01/01 05:46:36;;;;;;;20.75;9.32;;;;;;;0.58;92.02;96180.81;4970560;28;20109;-78
2021/01/01 05:49:03;;;;;;;18.50;9.32;;;;;;;0.55;92.46;96181.22;4940531;28;20422;-80
2021/01/01 05:51:28;;;;;;;20.20;10.10;;;;;;;0.61;92.67;96189.88;4953896;28;20059;-78
2021/01/01 05:54:10;;;;;;;23.85;10.30;;;;;;;0.51;92.21;96178.28;4971207;28;20031;-78
2021/01/01 05:56:39;;;;;;;19.50;9.48;;;;;;;0.56;92.67;96193.03;4946024;28;20046;-78
2021/01/01 05:59:10;;;;;;;20.13;9.88;;;;;;;0.54;92.74;96189.91;4951236;28;20430;-78
2021/01/01 06:01:36;;;;;;;19.75;8.90;;;;;;;0.54;92.64;96197.56;4947040;28;20041;-79
2021/01/01 06:04:05;;;;;;;19.55;9.25;;;;;;;0.54;92.94;96197.56;4968005;28;20181;-78
2021/01/01 06:06:34;;;;;;;20.10;9.52;;;;;;;0.50;92.50;96199.75;4947599;28;20111;-79
2021/01/01 06:09:05;;;;;;;17.33;8.20;;;;;;;0.46;92.90;96198.59;4948340;28;20051;-78
2021/01/01 06:11:36;;;;;;;18.95;9.35;;;;;;;0.54;92.83;96208.59;4933939;29;20045;-78
2021/01/01 06:14:04;;;;;;;17.30;9.02;;;;;;;0.54;92.91;96212.94;4949340;29;20059;-78
2021/01/01 06:16:31;;;;;;;16.42;9.10;;;;;;;0.52;92.68;96213.16;4937670;29;20032;-78
2021/01/01 06:18:57;;;;;;;20.10;10.13;;;;;;;0.54;92.82;96211.16;4939901;29;20357;-79
2021/01/01 06:21:33;;;;;;;16.40;8.95;;;;;;;0.48;92.57;96213.75;4947496;29;20024;-78
2021/01/01 06:24:01;;;;;;;19.67;8.85;;;;;;;0.47;92.19;96218.09;4916091;29;20404;-78
2021/01/01 06:26:26;;;;;;;17.63;8.55;;;;;;;0.51;92.52;96221.03;4959193;28;20023;-78
2021/01/01 06:28:53;;;;;;;17.17;8.23;;;;;;;0.52;92.46;96217.50;4972057;28;20481;-78
2021/01/01 06:31:19;;;;;;;18.70;9.85;;;;;;;0.51;92.68;96226.94;4928476;29;20039;-78
2021/01/01 06:33:45;;;;;;;15.75;8.27;;;;;;;0.49;92.26;96234.03;4933940;29;20027;-81
2021/01/01 06:36:37;;;;;;;18.27;9.40;;;;;;;0.41;92.81;96244.50;4925600;28;20122;-78
2021/01/01 06:39:05;;;;;;;20.23;8.60;;;;;;;0.46;92.88;96241.34;4931470;28;20031;-78
2021/01/01 06:41:46;;;;;;;16.58;7.82;;;;;;;0.37;93.17;96239.00;4950281;28;20507;-78
2021/01/01 06:44:35;;;;;;;14.88;7.82;;;;;;;0.44;92.70;96254.34;4951759;28;20033;-78
2021/01/01 06:47:02;;;;;;;13.98;7.47;;;;;;;0.54;92.77;96257.25;4951150;28;20027;-80
2021/01/01 06:49:39;;;;;;;16.13;7.70;;;;;;;0.46;92.70;96254.91;4933539;29;20485;-78
2021/01/01 06:52:15;;;;;;;14.13;7.20;;;;;;;0.44;93.02;96262.03;4969880;28;20118;-78
2021/01/01 06:54:58;;;;;;;16.40;8.50;;;;;;;0.42;92.64;96269.13;4942736;28;20479;-81
2021/01/01 06:57:26;;;;;;;16.05;7.90;;;;;;;0.47;93.03;96264.19;4926062;28;20041;-78
2021/01/01 06:59:52;;;;;;;20.77;9.55;;;;;;;0.48;92.97;96265.78;4968915;28;20114;-80
2021/01/01 07:02:25;;;;;;;14.18;7.15;;;;;;;0.42;92.87;96269.13;4942864;28;20030;-81
2021/01/01 07:04:51;;;;;;;18.15;8.00;;;;;;;0.50;93.01;96276.59;4950576;28;20481;-79
2021/01/01 07:07:40;;;;;;;15.85;6.93;;;;;;;0.48;92.96;96278.56;4967542;28;20074;-78
2021/01/01 07:10:07;;;;;;;14.82;7.72;;;;;;;0.46;93.47;96275.41;4917382;29;20040;-81
2021/01/01 07:12:33;;;;;;;12.43;6.63;;;;;;;0.50;93.13;96281.72;4959544;28;20490;-78
2021/01/01 07:14:59;;;;;;;15.10;8.45;;;;;;;0.54;92.94;96282.09;4942271;28;20022;-81
2021/01/01 07:17:25;;;;;;;15.38;7.43;;;;;;;0.52;92.75;96284.09;4944807;28;20042;-80
2021/01/01 07:19:50;;;;;;;15.45;7.88;;;;;;;0.54;93.13;96292.34;4907398;29;20040;-80
2021/01/01 07:22:16;;;;;;;12.85;7.80;;;;;;;0.51;92.83;96292.75;4940862;28;20038;-81
2021/01/01 07:24:48;;;;;;;16.77;7.45;;;;;;;0.47;92.68;96299.25;4937413;28;20509;-81
2021/01/01 07:27:14;;;;;;;17.15;8.75;;;;;;;0.51;93.12;96300.41;4928962;28;20027;-80
2021/01/01 07:29:40;;;;;;;17.23;8.88;;;;;;;0.53;93.00;96299.25;4945220;29;20039;-81
2021/01/01 07:32:06;;;;;;;17.35;8.35;;;;;;;0.56;92.74;96301.38;4939820;28;20351;-80
2021/01/01 07:34:32;;;;;;;15.48;8.13;;;;;;;0.60;92.72;96311.22;4946051;29;20447;-80
2021/01/01 07:37:01;;;;;;;14.93;7.60;;;;;;;0.57;92.84;96304.75;4911497;28;20085;-80
2021/01/01 07:39:28;;;;;;;16.55;8.65;;;;;;;0.63;92.36;96310.84;4941143;28;20030;-81
2021/01/01 07:42:04;;;;;;;18.88;9.40;;;;;;;0.48;92.94;96301.63;4939401;28;20088;-80
2021/01/01 07:44:30;;;;;;;18.90;9.48;;;;;;;0.57;92.79;96312.44;4944978;28;20097;-80
2021/01/01 07:46:57;;;;;;;17.80;8.65;;;;;;;0.61;92.78;96317.94;4937765;28;20126;-80
2021/01/01 07:49:22;;;;;;;17.35;8.57;;;;;;;0.59;92.80;96314.81;4930498;28;20533;-80
2021/01/01 07:51:48;;;;;;;19.05;9.63;;;;;;;0.63;92.43;96315.97;4947478;28;20523;-81
2021/01/01 07:54:14;;;;;;;19.40;9.35;;;;;;;0.61;92.82;96317.94;4951163;28;20115;-81
2021/01/01 07:56:40;;;;;;;19.08;8.52;;;;;;;0.66;92.70;96323.25;4934679;29;20301;-81
2021/01/01 07:59:06;;;;;;;19.88;9.60;;;;;;;0.60;92.55;96329.97;4951738;28;20030;-81
2021/01/01 08:01:34;;;;;;;19.88;9.90;;;;;;;0.62;92.52;96322.06;4934702;28;20032;-81
2021/01/01 08:04:01;;;;;;;20.02;8.95;;;;;;;0.56;92.92;96332.13;4934790;29;20055;-81
2021/01/01 08:06:27;;;;;;;20.10;10.40;;;;;;;0.57;92.70;96332.94;4950044;29;20130;-81
2021/01/01 08:09:02;;;;;;;20.00;10.02;;;;;;;0.48;92.68;96334.13;4924725;29;20032;-81
2021/01/01 08:11:28;;;;;;;;;;;;;;;0.44;93.35;96338.84;4891182;29;20039;-81
2021/01/01 08:13:54;;;;;;;16.65;8.63;;;;;;;0.48;93.32;96334.13;4928114;29;19919;-81
2021/01/01 08:16:20;;;;;;;19.80;9.38;;;;;;;0.51;93.07;96333.72;4924613;29;20245;-81
2021/01/01 08:18:46;;;;;;;22.25;10.32;;;;;;;0.50;92.70;96339.84;4934773;29;20156;-81
2021/01/01 08:21:12;;;;;;;20.63;9.82;;;;;;;0.43;93.06;96337.28;4918692;29;20043;-80
2021/01/01 08:24:06;;;;;;;22.10;11.05;;;;;;;0.41;92.80;96339.25;4925341;29;20035;-80
2021/01/01 08:26:34;;;;;;;19.60;9.80;;;;;;;0.47;92.56;96345.38;4927626;29;20452;-80
2021/01/01 08:29:00;;;;;;;18.27;9.50;;;;;;;0.49;92.27;96346.72;4930744;29;20166;-79
2021/01/01 08:31:27;;;;;;;15.23;8.60;;;;;;;0.49;92.07;96341.59;4922603;29;20032;-79
2021/01/01 08:33:54;;;;;;;15.77;8.23;;;;;;;0.42;92.07;96345.94;4946938;29;20368;-79
2021/01/01 08:36:29;;;;;;;16.67;8.60;;;;;;;0.33;92.37;96334.38;4912827;29;20062;-79
2021/01/01 08:39:05;;;;;;;14.98;7.85;;;;;;;0.43;92.38;96355.22;4946633;29;20042;-79
2021/01/01 08:41:36;;;;;;;18.90;8.55;;;;;;;0.40;92.41;96347.94;4947049;29;20114;-79
2021/01/01 08:44:09;;;;;;;21.92;9.93;;;;;;;0.41;93.03;96353.84;4918295;29;20038;-79
2021/01/01 08:46:35;;;;;;;20.98;10.30;;;;;;;0.50;92.96;96357.78;4928615;29;20052;-79
2021/01/01 08:49:21;;;;;;;19.23;9.63;;;;;;;0.41;92.48;96359.72;4932202;29;20066;-79
2021/01/01 08:51:48;;;;;;;18.50;9.43;;;;;;;0.48;92.57;96362.28;4930175;29;20229;-79
2021/01/01 08:54:24;;;;;;;18.45;9.30;;;;;;;0.58;92.27;96374.69;4927013;29;20032;-79
2021/01/01 08:57:01;;;;;;;17.85;9.52;;;;;;;0.56;92.83;96367.97;4931462;29;20094;-80
2021/01/01 08:59:35;;;;;;;;;;;;;;;0.56;92.38;96374.88;4925082;29;20123;-79
2021/01/01 09:02:11;;;;;;;17.77;8.18;;;;;;;0.62;92.74;96376.66;4914191;28;20005;-80
2021/01/01 09:04:43;;;;;;;20.23;9.45;;;;;;;0.73;92.51;96377.81;4936804;28;20073;-80
2021/01/01 09:07:14;;;;;;;19.45;10.18;;;;;;;0.62;92.56;96375.84;4969492;28;20042;-80
2021/01/01 09:09:40;;;;;;;20.08;9.50;;;;;;;0.69;92.99;96382.53;4949889;28;20395;-80
2021/01/01 09:12:16;;;;;;;21.98;9.85;;;;;;;0.74;92.21;96384.50;4936957;28;20094;-79
2021/01/01 09:15:00;;;;;;;21.70;10.38;;;;;;;0.82;92.25;96391.19;4939513;28;20705;-80
2021/01/01 09:17:26;;;;;;;23.15;11.32;;;;;;;0.86;92.32;96394.94;4940655;28;20037;-80
2021/01/01 09:20:04;;;;;;;20.63;10.18;;;;;;;0.82;92.43;96384.28;4953025;28;20038;-80
2021/01/01 09:22:32;;;;;;;20.02;9.98;;;;;;;0.90;92.23;96388.41;4952622;28;20049;-80
2021/01/01 09:25:18;;;;;;;19.30;9.35;;;;;;;0.80;91.91;96393.94;4932418;29;20055;-80
2021/01/01 09:27:44;;;;;;;;;;;;;;;0.72;92.22;96396.72;4921141;28;20046;-80
2021/01/01 09:30:11;;;;;;;21.15;10.90;;;;;;;0.81;92.54;96399.88;4937185;29;20251;-79
2021/01/01 09:32:51;;;;;;;24.50;10.68;;;;;;;0.82;92.94;96407.34;4910758;29;20027;-80
2021/01/01 09:35:17;;;;;;;28.42;12.45;;;;;;;0.92;92.52;96409.50;4929969;29;20111;-80
2021/01/01 09:37:50;;;;;;;23.70;11.25;;;;;;;0.95;92.29;96416.00;4946426;28;20042;-79
2021/01/01 09:40:17;;;;;;;24.60;10.93;;;;;;;0.97;92.05;96414.78;4955588;28;20025;-80
2021/01/01 09:42:43;;;;;;;22.90;10.55;;;;;;;1.00;92.35;96422.09;4925824;29;20097;-80
2021/01/01 09:45:10;;;;;;;23.92;11.48;;;;;;;1.00;92.65;96419.53;4946184;29;20368;-80
2021/01/01 09:47:39;;;;;;;20.30;9.70;;;;;;;0.97;92.37;96421.72;4965005;28;20031;-80
2021/01/01 09:50:06;;;;;;;25.33;11.10;;;;;;;0.90;92.44;96414.81;4957305;28;20129;-80
2021/01/01 09:52:32;;;;;;;24.80;10.90;;;;;;;0.92;92.50;96420.53;4934006;28;20132;-80
2021/01/01 09:54:58;;;;;;;21.83;10.13;;;;;;;0.95;92.88;96427.03;4932186;28;20033;-80
2021/01/01 09:57:27;;;;;;;22.63;11.35;;;;;;;1.02;92.69;96421.88;4958347;28;20049;-80
2021/01/01 09:59:53;;;;;;;18.48;9.13;;;;;;;0.95;92.33;96421.13;4919795;28;20490;-80
2021/01/01 10:02:19;;;;;;;21.88;10.07;;;;;;;0.99;92.75;96412.03;4948967;28;20036;-80
2021/01/01 10:04:45;;;;;;;22.45;10.48;;;;;;;1.08;92.40;96421.06;4928766;29;20039;-80
2021/01/01 10:07:11;;;;;;;23.10;10.73;;;;;;;1.11;92.37;96420.66;4903587;29;20119;-80
2021/01/01 10:09:36;;;;;;;22.35;12.60;;;;;;;1.02;92.92;96411.63;4903059;29;20454;-80
2021/01/01 10:12:05;;;;;;;20.80;9.98;;;;;;;1.11;92.38;96425.78;4924436;29;20487;-80
2021/01/01 10:14:35;;;;;;;20.33;10.57;;;;;;;1.19;92.20;96430.69;4943309;28;20071;-80
2021/01/01 10:17:00;;;;;;;20.88;10.00;;;;;;;1.21;92.16;96421.03;4925412;29;20439;-80
2021/01/01 10:19:26;;;;;;;20.98;11.23;;;;;;;1.22;91.93;96427.75;4907084;29;20116;-80
2021/01/01 10:21:53;;;;;;;19.00;9.80;;;;;;;1.19;91.89;96423.00;4953477;29;20508;-80
2021/01/01 10:24:19;;;;;;;18.40;9.45;;;;;;;1.23;92.05;96428.50;4934862;29;20043;-80
2021/01/01 10:26:49;;;;;;;19.17;9.85;;;;;;;1.20;92.39;96426.34;4927657;29;20053;-80
2021/01/01 10:29:17;;;;;;;21.15;9.23;;;;;;;1.21;92.33;96418.47;4917851;29;20074;-80
2021/01/01 10:31:44;;;;;;;22.27;10.32;;;;;;;1.23;91.93;96424.16;4914180;29;20036;-80
2021/01/01 10:34:11;;;;;;;20.35;10.00;;;;;;;1.26;92.09;96430.69;4935050;29;20042;-80
2021/01/01 10:36:38;;;;;;;21.83;10.30;;;;;;;1.31;92.06;96430.84;4919009;29;20118;-80
2021/01/01 10:39:05;;;;;;;18.33;9.02;;;;;;;1.34;91.96;96430.47;4915482;29;20043;-80
2021/01/01 10:41:31;;;;;;;15.40;8.13;;;;;;;1.28;92.06;96419.22;4912154;29;20027;-80
2021/01/01 10:43:56;;;;;;;18.92;9.35;;;;;;;1.38;92.16;96430.84;4912967;29;20042;-80
2021/01/01 10:46:22;;;;;;;17.17;9.57;;;;;;;1.36;91.78;96432.81;4944468;29;20392;-81
2021/01/01 10:48:49;;;;;;;17.23;9.75;;;;;;;1.31;91.89;96429.06;4924763;29;20078;-80
2021/01/01 10:51:23;;;;;;;16.70;9.20;;;;;;;1.28;92.07;96421.00;4925491;29;20546;-80
2021/01/01 10:53:48;;;;;;;19.17;9.85;;;;;;;1.24;91.35;96412.16;4934830;29;20046;-80
2021/01/01 10:56:25;;;;;;;19.75;10.13;;;;;;;1.22;92.10;96432.09;4891305;29;20036;-79
2021/01/01 10:58:54;;;;;;;18.92;9.27;;;;;;;1.24;92.05;96428.31;4929918;29;20493;-80
2021/01/01 11:01:37;;;;;;;16.27;8.50;;;;;;;1.22;91.90;96427.75;4920228;29;20507;-80
2021/01/01 11:04:03;;;;;;;18.50;9.63;;;;;;;1.25;92.24;96431.66;4909299;28;20094;-80
2021/01/01 11:06:29;;;;;;;19.67;10.05;;;;;;;1.21;92.21;96418.47;4911329;29;20353;-80
2021/01/01 11:08:56;;;;;;;20.50;9.68;;;;;;;1.10;92.38;96406.28;4927453;29;20549;-79
2021/01/01 11:11:22;;;;;;;15.15;7.55;;;;;;;1.21;92.40;96425.38;4928377;29;20264;-80
2021/01/01 11:13:58;;;;;;;18.13;8.75;;;;;;;1.15;92.35;96421.84;4943923;28;20134;-80
2021/01/01 12:20:43;;;;;;;16.92;8.50;;;;;;;1.40;91.06;96405.75;4950992;29;20038;-79
2021/01/01 12:23:08;;;;;;;13.02;7.28;;;;;;;1.50;91.45;96419.72;4943816;29;20126;-79
2021/01/01 12:25:33;;;;;;;13.60;7.18;;;;;;;1.48;90.80;96406.31;4949841;28;20073;-79
2021/01/01 12:28:02;;;;;;;10.55;6.28;;;;;;;1.47;90.32;96411.63;4949774;29;20483;-80
2021/01/01 12:30:30;;;;;;;12.65;6.07;;;;;;;1.46;90.59;96410.88;4950074;28;20045;-80
2021/01/01 12:32:55;;;;;;;12.75;6.45;;;;;;;1.50;90.60;96401.75;4930398;28;20082;-80
2021/01/01 12:35:21;;;;;;;12.05;6.35;;;;;;;1.60;90.05;96405.66;4938026;28;20035;-79
2021/01/01 12:38:01;;;;;;;12.32;6.88;;;;;;;1.45;90.38;96406.72;4927218;29;20082;-79
2021/01/01 12:40:28;;;;;;;11.90;6.50;;;;;;;1.53;90.64;96405.69;4951850;29;20042;-80
2021/01/01 12:42:53;;;;;;;13.60;7.20;;;;;;;1.52;90.48;96403.34;4940303;29;20035;-79
2021/01/01 12:45:20;;;;;;;11.13;6.90;;;;;;;1.51;91.20;96412.81;4939387;28;20035;-80